sensor_id;sensor_type;location;lat;lon;timestamp;temperature;humidity
58933;DHT22;44716;51.022;6.818;2024-01-15T00:00:43;21.00;58.30
58933;DHT22;44716;51.022;6.818;2024-01-15T00:03:09;20.90;58.20
58933;DHT22;44716;51.022;6.818;2024-01-15T00:05:36;20.90;58.20
58933;DHT22;44716;51.022;6.818;2024-01-15T00:08:01;20.90;58.20
58933;DHT22;44716;51.022;6.818;2024-01-15T00:10:27;20.80;58.30
58933;DHT22;44716;51.022;6.818;2024-01-15T00:12:53;20.80;58.20
58933;DHT22;44716;51.022;6.818;2024-01-15T00:15:18;20.70;58.20
58933;DHT22;44716;51.022;6.818;2024-01-15T00:17:44;20.70;58.30
58933;DHT22;44716;51.022;6.818;2024-01-15T00:20:10;20.70;58.30
58933;DHT22;44716;51.022;6.818;2024-01-15T00:22:35;20.70;58.30
58933;DHT22;44716;51.022;6.818;2024-01-15T00:25:01;20.60;58.40
58933;DHT22;44716;51.022;6.818;2024-01-15T00:27:27;20.60;58.40
58933;DHT22;44716;51.022;6.818;2024-01-15T00:29:53;20.60;58.30
58933;DHT22;44716;51.022;6.818;2024-01-15T00:32:19;20.60;58.30
58933;DHT22;44716;51.022;6.818;2024-01-15T00:34:45;20.60;58.30
58933;DHT22;44716;51.022;6.818;2024-01-15T00:37:11;20.60;58.30
58933;DHT22;44716;51.022;6.818;2024-01-15T00:39:36;20.60;58.40
58933;DHT22;44716;51.022;6.818;2024-01-15T00:42:02;20.60;58.40
58933;DHT22;44716;51.022;6.818;2024-01-15T00:44:28;20.60;58.40
58933;DHT22;44716;51.022;6.818;2024-01-15T00:46:53;20.60;58.40
58933;DHT22;44716;51.022;6.818;2024-01-15T00:49:19;20.60;58.40
58933;DHT22;44716;51.022;6.818;2024-01-15T00:51:44;20.50;58.40
58933;DHT22;44716;51.022;6.818;2024-01-15T00:54:10;20.50;58.30
58933;DHT22;44716;51.022;6.818;2024-01-15T00:56:36;20.50;58.30
58933;DHT22;44716;51.022;6.818;2024-01-15T00:59:02;20.50;58.40
58933;DHT22;44716;51.022;6.818;2024-01-15T01:01:27;20.50;58.50
58933;DHT22;44716;51.022;6.818;2024-01-15T01:03:53;20.50;58.40
58933;DHT22;44716;51.022;6.818;2024-01-15T01:06:19;20.50;58.40
58933;DHT22;44716;51.022;6.818;2024-01-15T01:08:44;20.50;58.30
58933;DHT22;44716;51.022;6.818;2024-01-15T01:11:13;20.40;58.30
58933;DHT22;44716;51.022;6.818;2024-01-15T01:13:39;20.40;58.30
58933;DHT22;44716;51.022;6.818;2024-01-15T01:16:04;20.50;58.30
58933;DHT22;44716;51.022;6.818;2024-01-15T01:18:30;20.40;58.30
58933;DHT22;44716;51.022;6.818;2024-01-15T01:20:55;20.40;58.30
58933;DHT22;44716;51.022;6.818;2024-01-15T01:23:21;20.40;58.20
58933;DHT22;44716;51.022;6.818;2024-01-15T01:25:46;20.40;58.20
58933;DHT22;44716;51.022;6.818;2024-01-15T01:28:12;20.40;58.20
58933;DHT22;44716;51.022;6.818;2024-01-15T01:30:37;20.40;58.20
58933;DHT22;44716;51.022;6.818;2024-01-15T01:33:03;20.30;58.10
58933;DHT22;44716;51.022;6.818;2024-01-15T01:35:29;20.30;58.10
58933;DHT22;44716;51.022;6.818;2024-01-15T01:37:54;20.30;58.20
58933;DHT22;44716;51.022;6.818;2024-01-15T01:40:20;20.30;58.20
58933;DHT22;44716;51.022;6.818;2024-01-15T01:42:45;20.30;58.10
58933;DHT22;44716;51.022;6.818;2024-01-15T01:45:11;20.30;58.20
58933;DHT22;44716;51.022;6.818;2024-01-15T01:47:37;20.20;58.30
58933;DHT22;44716;51.022;6.818;2024-01-15T01:50:02;20.30;58.30
58933;DHT22;44716;51.022;6.818;2024-01-15T01:52:28;20.30;58.20
58933;DHT22;44716;51.022;6.818;2024-01-15T01:54:53;20.20;58.10
58933;DHT22;44716;51.022;6.818;2024-01-15T01:57:19;20.20;58.20
58933;DHT22;44716;51.022;6.818;2024-01-15T01:59:45;20.20;58.30
58933;DHT22;44716;51.022;6.818;2024-01-15T02:02:11;20.20;58.20
58933;DHT22;44716;51.022;6.818;2024-01-15T02:04:36;20.20;58.20
58933;DHT22;44716;51.022;6.818;2024-01-15T02:07:03;20.20;58.20
58933;DHT22;44716;51.022;6.818;2024-01-15T02:09:29;20.20;58.20
58933;DHT22;44716;51.022;6.818;2024-01-15T02:11:55;20.20;58.10
58933;DHT22;44716;51.022;6.818;2024-01-15T02:14:20;20.20;58.10
58933;DHT22;44716;51.022;6.818;2024-01-15T02:16:47;20.20;58.00
58933;DHT22;44716;51.022;6.818;2024-01-15T02:19:16;20.10;58.00
58933;DHT22;44716;51.022;6.818;2024-01-15T02:21:42;20.10;58.00
58933;DHT22;44716;51.022;6.818;2024-01-15T02:24:07;20.10;58.00
58933;DHT22;44716;51.022;6.818;2024-01-15T02:26:33;20.10;58.10
58933;DHT22;44716;51.022;6.818;2024-01-15T02:29:01;20.10;58.00
58933;DHT22;44716;51.022;6.818;2024-01-15T02:31:26;20.10;58.00
58933;DHT22;44716;51.022;6.818;2024-01-15T02:33:52;20.10;58.10
58933;DHT22;44716;51.022;6.818;2024-01-15T02:36:18;20.00;58.00
58933;DHT22;44716;51.022;6.818;2024-01-15T02:38:43;20.00;58.00
58933;DHT22;44716;51.022;6.818;2024-01-15T02:41:09;20.00;58.00
58933;DHT22;44716;51.022;6.818;2024-01-15T02:43:34;20.00;58.10
58933;DHT22;44716;51.022;6.818;2024-01-15T02:46:00;20.00;58.10
58933;DHT22;44716;51.022;6.818;2024-01-15T02:48:25;20.00;58.10
58933;DHT22;44716;51.022;6.818;2024-01-15T02:50:51;20.00;58.10
58933;DHT22;44716;51.022;6.818;2024-01-15T02:53:16;19.90;58.10
58933;DHT22;44716;51.022;6.818;2024-01-15T02:55:42;19.90;58.00
58933;DHT22;44716;51.022;6.818;2024-01-15T02:58:07;19.90;58.00
58933;DHT22;44716;51.022;6.818;2024-01-15T03:00:33;19.90;57.90
58933;DHT22;44716;51.022;6.818;2024-01-15T03:02:58;19.90;58.00
58933;DHT22;44716;51.022;6.818;2024-01-15T03:05:24;19.90;58.10
58933;DHT22;44716;51.022;6.818;2024-01-15T03:07:49;19.90;58.00
58933;DHT22;44716;51.022;6.818;2024-01-15T03:10:15;19.90;58.00
58933;DHT22;44716;51.022;6.818;2024-01-15T03:12:41;19.90;58.10
58933;DHT22;44716;51.022;6.818;2024-01-15T03:15:06;19.90;58.00
58933;DHT22;44716;51.022;6.818;2024-01-15T03:17:32;19.80;58.00
58933;DHT22;44716;51.022;6.818;2024-01-15T03:19:57;19.80;58.00
58933;DHT22;44716;51.022;6.818;2024-01-15T03:22:23;19.80;58.00
58933;DHT22;44716;51.022;6.818;2024-01-15T03:24:48;19.80;58.60
58933;DHT22;44716;51.022;6.818;2024-01-15T03:27:14;19.80;58.00
58933;DHT22;44716;51.022;6.818;2024-01-15T03:29:40;19.80;58.60
58933;DHT22;44716;51.022;6.818;2024-01-15T03:32:06;19.80;58.00
58933;DHT22;44716;51.022;6.818;2024-01-15T03:34:31;19.80;58.10
58933;DHT22;44716;51.022;6.818;2024-01-15T03:36:57;19.80;58.00
58933;DHT22;44716;51.022;6.818;2024-01-15T03:39:24;19.80;58.00
58933;DHT22;44716;51.022;6.818;2024-01-15T03:41:49;19.70;58.00
58933;DHT22;44716;51.022;6.818;2024-01-15T03:44:15;19.70;58.00
58933;DHT22;44716;51.022;6.818;2024-01-15T03:46:40;19.70;58.00
58933;DHT22;44716;51.022;6.818;2024-01-15T03:49:06;19.80;58.10
58933;DHT22;44716;51.022;6.818;2024-01-15T03:51:31;19.70;58.10
58933;DHT22;44716;51.022;6.818;2024-01-15T03:53:57;19.70;58.10
58933;DHT22;44716;51.022;6.818;2024-01-15T03:56:22;19.70;58.10
58933;DHT22;44716;51.022;6.818;2024-01-15T03:58:48;19.70;58.10
58933;DHT22;44716;51.022;6.818;2024-01-15T04:01:13;19.70;58.10
58933;DHT22;44716;51.022;6.818;2024-01-15T04:03:39;19.70;58.00
58933;DHT22;44716;51.022;6.818;2024-01-15T04:06:05;19.70;58.00
58933;DHT22;44716;51.022;6.818;2024-01-15T04:08:30;19.70;58.00
58933;DHT22;44716;51.022;6.818;2024-01-15T04:10:56;19.60;58.00
58933;DHT22;44716;51.022;6.818;2024-01-15T04:13:21;19.60;58.00
58933;DHT22;44716;51.022;6.818;2024-01-15T04:15:47;19.60;58.00
58933;DHT22;44716;51.022;6.818;2024-01-15T04:18:13;19.60;58.10
58933;DHT22;44716;51.022;6.818;2024-01-15T04:20:38;19.60;58.00
58933;DHT22;44716;51.022;6.818;2024-01-15T04:23:04;19.60;58.00
58933;DHT22;44716;51.022;6.818;2024-01-15T04:25:30;19.60;58.10
58933;DHT22;44716;51.022;6.818;2024-01-15T04:27:55;19.60;58.10
58933;DHT22;44716;51.022;6.818;2024-01-15T04:30:21;19.60;58.00
58933;DHT22;44716;51.022;6.818;2024-01-15T04:32:46;19.50;58.00
58933;DHT22;44716;51.022;6.818;2024-01-15T04:35:12;19.50;58.00
58933;DHT22;44716;51.022;6.818;2024-01-15T04:37:38;19.60;58.10
58933;DHT22;44716;51.022;6.818;2024-01-15T04:40:03;19.50;58.10
58933;DHT22;44716;51.022;6.818;2024-01-15T04:42:29;19.50;58.00
58933;DHT22;44716;51.022;6.818;2024-01-15T04:44:55;19.50;58.20
58933;DHT22;44716;51.022;6.818;2024-01-15T04:47:20;19.50;58.10
58933;DHT22;44716;51.022;6.818;2024-01-15T04:49:46;19.50;58.20
58933;DHT22;44716;51.022;6.818;2024-01-15T04:52:11;19.50;58.10
58933;DHT22;44716;51.022;6.818;2024-01-15T04:54:38;19.50;58.20
58933;DHT22;44716;51.022;6.818;2024-01-15T04:57:03;19.50;58.10
58933;DHT22;44716;51.022;6.818;2024-01-15T04:59:29;19.50;58.10
58933;DHT22;44716;51.022;6.818;2024-01-15T05:01:54;19.50;58.10
58933;DHT22;44716;51.022;6.818;2024-01-15T05:04:20;19.50;58.30
58933;DHT22;44716;51.022;6.818;2024-01-15T05:06:46;19.50;58.40
58933;DHT22;44716;51.022;6.818;2024-01-15T05:09:11;19.40;58.30
58933;DHT22;44716;51.022;6.818;2024-01-15T05:11:39;19.40;58.20
58933;DHT22;44716;51.022;6.818;2024-01-15T05:14:04;19.40;58.30
58933;DHT22;44716;51.022;6.818;2024-01-15T05:16:30;19.40;58.20
58933;DHT22;44716;51.022;6.818;2024-01-15T05:18:55;19.40;58.20
58933;DHT22;44716;51.022;6.818;2024-01-15T05:21:21;19.40;58.10
58933;DHT22;44716;51.022;6.818;2024-01-15T05:23:46;19.40;58.20
58933;DHT22;44716;51.022;6.818;2024-01-15T05:26:12;19.40;58.10
58933;DHT22;44716;51.022;6.818;2024-01-15T05:28:38;19.40;58.10
58933;DHT22;44716;51.022;6.818;2024-01-15T05:31:03;19.40;58.10
58933;DHT22;44716;51.022;6.818;2024-01-15T05:33:29;19.40;58.20
58933;DHT22;44716;51.022;6.818;2024-01-15T05:35:55;19.40;58.20
58933;DHT22;44716;51.022;6.818;2024-01-15T05:38:20;19.40;58.30
58933;DHT22;44716;51.022;6.818;2024-01-15T05:40:46;19.40;58.30
58933;DHT22;44716;51.022;6.818;2024-01-15T05:43:11;19.40;58.30
58933;DHT22;44716;51.022;6.818;2024-01-15T05:45:38;19.40;58.40
58933;DHT22;44716;51.022;6.818;2024-01-15T05:48:03;19.50;58.50
58933;DHT22;44716;51.022;6.818;2024-01-15T05:50:29;19.60;59.10
58933;DHT22;44716;51.022;6.818;2024-01-15T05:52:55;19.60;58.50
58933;DHT22;44716;51.022;6.818;2024-01-15T05:55:20;19.70;58.20
58933;DHT22;44716;51.022;6.818;2024-01-15T05:57:46;19.70;58.10
58933;DHT22;44716;51.022;6.818;2024-01-15T06:00:11;19.70;58.00
58933;DHT22;44716;51.022;6.818;2024-01-15T06:02:37;19.80;58.20
58933;DHT22;44716;51.022;6.818;2024-01-15T06:05:03;19.90;58.10
58933;DHT22;44716;51.022;6.818;2024-01-15T06:07:29;19.90;57.80
58933;DHT22;44716;51.022;6.818;2024-01-15T06:09:55;20.00;57.60
58933;DHT22;44716;51.022;6.818;2024-01-15T06:12:22;20.00;57.50
58933;DHT22;44716;51.022;6.818;2024-01-15T06:14:47;20.00;57.40
58933;DHT22;44716;51.022;6.818;2024-01-15T06:17:13;20.00;57.30
58933;DHT22;44716;51.022;6.818;2024-01-15T06:19:39;20.00;57.40
58933;DHT22;44716;51.022;6.818;2024-01-15T06:22:04;20.10;57.30
58933;DHT22;44716;51.022;6.818;2024-01-15T06:24:30;20.10;57.20
58933;DHT22;44716;51.022;6.818;2024-01-15T06:26:55;20.10;57.10
58933;DHT22;44716;51.022;6.818;2024-01-15T06:29:21;20.10;57.20
58933;DHT22;44716;51.022;6.818;2024-01-15T06:31:47;20.10;57.20
58933;DHT22;44716;51.022;6.818;2024-01-15T06:34:12;20.10;57.10
58933;DHT22;44716;51.022;6.818;2024-01-15T06:36:38;20.10;57.10
58933;DHT22;44716;51.022;6.818;2024-01-15T06:39:03;20.10;57.10
58933;DHT22;44716;51.022;6.818;2024-01-15T06:41:29;20.10;57.00
58933;DHT22;44716;51.022;6.818;2024-01-15T06:43:55;20.00;57.10
58933;DHT22;44716;51.022;6.818;2024-01-15T06:46:21;20.00;57.00
58933;DHT22;44716;51.022;6.818;2024-01-15T06:48:47;20.00;57.10
58933;DHT22;44716;51.022;6.818;2024-01-15T06:51:12;20.00;57.10
58933;DHT22;44716;51.022;6.818;2024-01-15T06:53:38;19.90;57.10
58933;DHT22;44716;51.022;6.818;2024-01-15T06:56:04;19.90;57.10
58933;DHT22;44716;51.022;6.818;2024-01-15T06:58:32;19.90;57.10
58933;DHT22;44716;51.022;6.818;2024-01-15T07:00:58;19.90;57.20
58933;DHT22;44716;51.022;6.818;2024-01-15T07:03:24;19.90;57.20
58933;DHT22;44716;51.022;6.818;2024-01-15T07:05:49;19.80;57.30
58933;DHT22;44716;51.022;6.818;2024-01-15T07:08:15;19.80;57.20
58933;DHT22;44716;51.022;6.818;2024-01-15T07:10:40;19.80;57.20
58933;DHT22;44716;51.022;6.818;2024-01-15T07:13:06;19.80;57.20
58933;DHT22;44716;51.022;6.818;2024-01-15T07:15:32;19.80;57.20
58933;DHT22;44716;51.022;6.818;2024-01-15T07:17:57;19.80;57.20
58933;DHT22;44716;51.022;6.818;2024-01-15T07:20:22;19.80;57.20
58933;DHT22;44716;51.022;6.818;2024-01-15T07:22:48;19.80;57.20
58933;DHT22;44716;51.022;6.818;2024-01-15T07:25:14;19.80;57.20
58933;DHT22;44716;51.022;6.818;2024-01-15T07:27:40;19.80;57.20
58933;DHT22;44716;51.022;6.818;2024-01-15T07:30:09;19.80;57.10
58933;DHT22;44716;51.022;6.818;2024-01-15T07:32:35;19.90;57.10
58933;DHT22;44716;51.022;6.818;2024-01-15T07:35:00;19.90;57.10
58933;DHT22;44716;51.022;6.818;2024-01-15T07:37:26;19.80;57.00
58933;DHT22;44716;51.022;6.818;2024-01-15T07:39:51;19.90;57.10
58933;DHT22;44716;51.022;6.818;2024-01-15T07:42:17;19.80;57.00
58933;DHT22;44716;51.022;6.818;2024-01-15T07:44:42;19.80;57.00
58933;DHT22;44716;51.022;6.818;2024-01-15T07:47:08;19.80;57.10
58933;DHT22;44716;51.022;6.818;2024-01-15T07:49:34;19.80;57.00
58933;DHT22;44716;51.022;6.818;2024-01-15T07:52:00;19.80;57.00
58933;DHT22;44716;51.022;6.818;2024-01-15T07:54:25;19.90;57.00
58933;DHT22;44716;51.022;6.818;2024-01-15T07:56:55;19.80;57.00
58933;DHT22;44716;51.022;6.818;2024-01-15T07:59:21;19.80;57.00
58933;DHT22;44716;51.022;6.818;2024-01-15T08:01:47;19.80;57.00
58933;DHT22;44716;51.022;6.818;2024-01-15T08:04:12;19.80;57.10
58933;DHT22;44716;51.022;6.818;2024-01-15T08:06:38;19.80;57.10
58933;DHT22;44716;51.022;6.818;2024-01-15T08:09:04;19.70;57.10
58933;DHT22;44716;51.022;6.818;2024-01-15T08:11:29;19.70;57.10
58933;DHT22;44716;51.022;6.818;2024-01-15T08:13:55;19.70;57.10
58933;DHT22;44716;51.022;6.818;2024-01-15T08:16:21;19.70;57.20
58933;DHT22;44716;51.022;6.818;2024-01-15T08:18:47;19.70;57.20
58933;DHT22;44716;51.022;6.818;2024-01-15T08:21:12;19.70;57.30
58933;DHT22;44716;51.022;6.818;2024-01-15T08:23:39;19.70;57.30
58933;DHT22;44716;51.022;6.818;2024-01-15T08:26:04;19.70;57.30
58933;DHT22;44716;51.022;6.818;2024-01-15T08:28:30;19.60;57.30
58933;DHT22;44716;51.022;6.818;2024-01-15T08:30:56;19.70;57.30
58933;DHT22;44716;51.022;6.818;2024-01-15T08:33:21;19.60;57.90
58933;DHT22;44716;51.022;6.818;2024-01-15T08:35:47;19.60;57.30
58933;DHT22;44716;51.022;6.818;2024-01-15T08:38:13;19.60;57.30
58933;DHT22;44716;51.022;6.818;2024-01-15T08:40:38;19.60;57.30
58933;DHT22;44716;51.022;6.818;2024-01-15T08:43:04;19.60;57.30
58933;DHT22;44716;51.022;6.818;2024-01-15T08:45:32;19.60;57.40
58933;DHT22;44716;51.022;6.818;2024-01-15T08:47:57;19.50;57.30
58933;DHT22;44716;51.022;6.818;2024-01-15T08:50:23;19.50;57.40
58933;DHT22;44716;51.022;6.818;2024-01-15T08:52:48;19.50;57.40
58933;DHT22;44716;51.022;6.818;2024-01-15T08:55:14;19.50;57.40
58933;DHT22;44716;51.022;6.818;2024-01-15T08:57:39;19.50;57.30
58933;DHT22;44716;51.022;6.818;2024-01-15T09:00:05;19.50;57.20
58933;DHT22;44716;51.022;6.818;2024-01-15T09:02:34;19.50;57.30
58933;DHT22;44716;51.022;6.818;2024-01-15T09:04:59;19.50;57.30
58933;DHT22;44716;51.022;6.818;2024-01-15T09:07:25;19.40;57.30
58933;DHT22;44716;51.022;6.818;2024-01-15T09:09:52;19.40;57.30
58933;DHT22;44716;51.022;6.818;2024-01-15T09:12:17;19.40;57.20
58933;DHT22;44716;51.022;6.818;2024-01-15T09:14:44;19.40;57.20
58933;DHT22;44716;51.022;6.818;2024-01-15T09:17:09;19.40;57.20
58933;DHT22;44716;51.022;6.818;2024-01-15T09:19:35;19.40;57.20
58933;DHT22;44716;51.022;6.818;2024-01-15T09:22:00;19.40;57.10
58933;DHT22;44716;51.022;6.818;2024-01-15T09:24:26;19.40;57.10
58933;DHT22;44716;51.022;6.818;2024-01-15T09:26:51;19.40;57.20
58933;DHT22;44716;51.022;6.818;2024-01-15T09:29:17;19.40;57.10
58933;DHT22;44716;51.022;6.818;2024-01-15T09:31:43;19.30;57.10
58933;DHT22;44716;51.022;6.818;2024-01-15T09:34:09;19.30;57.10
58933;DHT22;44716;51.022;6.818;2024-01-15T09:36:41;19.30;57.10
58933;DHT22;44716;51.022;6.818;2024-01-15T09:39:09;19.30;57.10
58933;DHT22;44716;51.022;6.818;2024-01-15T09:41:36;19.30;57.10
58933;DHT22;44716;51.022;6.818;2024-01-15T09:44:03;19.30;57.10
58933;DHT22;44716;51.022;6.818;2024-01-15T09:46:28;19.30;57.20
58933;DHT22;44716;51.022;6.818;2024-01-15T09:48:54;19.20;57.10
58933;DHT22;44716;51.022;6.818;2024-01-15T09:51:20;19.30;57.10
58933;DHT22;44716;51.022;6.818;2024-01-15T09:53:46;19.30;57.00
58933;DHT22;44716;51.022;6.818;2024-01-15T09:56:12;19.30;57.60
58933;DHT22;44716;51.022;6.818;2024-01-15T09:58:38;19.30;57.10
58933;DHT22;44716;51.022;6.818;2024-01-15T10:01:04;19.20;57.00
58933;DHT22;44716;51.022;6.818;2024-01-15T10:03:30;19.20;57.10
58933;DHT22;44716;51.022;6.818;2024-01-15T10:05:57;19.20;57.00
58933;DHT22;44716;51.022;6.818;2024-01-15T10:08:24;19.20;57.10
58933;DHT22;44716;51.022;6.818;2024-01-15T10:10:50;19.20;57.10
58933;DHT22;44716;51.022;6.818;2024-01-15T10:13:16;19.20;57.10
58933;DHT22;44716;51.022;6.818;2024-01-15T10:15:44;19.20;57.10
58933;DHT22;44716;51.022;6.818;2024-01-15T10:18:12;19.10;57.80
58933;DHT22;44716;51.022;6.818;2024-01-15T10:20:37;19.20;57.20
58933;DHT22;44716;51.022;6.818;2024-01-15T10:23:03;19.20;57.20
58933;DHT22;44716;51.022;6.818;2024-01-15T10:25:29;19.10;57.10
58933;DHT22;44716;51.022;6.818;2024-01-15T10:28:02;19.10;57.10
58933;DHT22;44716;51.022;6.818;2024-01-15T10:30:29;19.10;57.20
58933;DHT22;44716;51.022;6.818;2024-01-15T10:33:00;19.10;57.20
58933;DHT22;44716;51.022;6.818;2024-01-15T10:35:35;19.20;57.20
58933;DHT22;44716;51.022;6.818;2024-01-15T10:38:01;19.10;57.20
58933;DHT22;44716;51.022;6.818;2024-01-15T10:40:28;19.10;57.10
58933;DHT22;44716;51.022;6.818;2024-01-15T10:42:54;19.10;57.20
58933;DHT22;44716;51.022;6.818;2024-01-15T10:45:19;19.10;57.20
58933;DHT22;44716;51.022;6.818;2024-01-15T10:47:45;19.10;57.10
58933;DHT22;44716;51.022;6.818;2024-01-15T10:50:11;19.10;57.00
58933;DHT22;44716;51.022;6.818;2024-01-15T10:52:37;19.10;57.30
58933;DHT22;44716;51.022;6.818;2024-01-15T10:55:03;19.10;57.30
58933;DHT22;44716;51.022;6.818;2024-01-15T10:57:29;19.10;57.40
58933;DHT22;44716;51.022;6.818;2024-01-15T10:59:55;19.10;57.70
58933;DHT22;44716;51.022;6.818;2024-01-15T11:02:21;19.00;57.50
58933;DHT22;44716;51.022;6.818;2024-01-15T11:04:47;19.00;57.60
58933;DHT22;44716;51.022;6.818;2024-01-15T11:07:13;19.10;57.70
58933;DHT22;44716;51.022;6.818;2024-01-15T11:09:39;19.10;57.70
58933;DHT22;44716;51.022;6.818;2024-01-15T11:12:11;19.10;57.70
58933;DHT22;44716;51.022;6.818;2024-01-15T11:14:41;19.10;57.70
58933;DHT22;44716;51.022;6.818;2024-01-15T11:17:09;19.10;57.80
58933;DHT22;44716;51.022;6.818;2024-01-15T11:19:44;19.10;57.70
58933;DHT22;44716;51.022;6.818;2024-01-15T11:22:32;19.10;57.80
58933;DHT22;44716;51.022;6.818;2024-01-15T11:25:02;19.10;57.90
58933;DHT22;44716;51.022;6.818;2024-01-15T11:27:39;19.10;57.80
58933;DHT22;44716;51.022;6.818;2024-01-15T11:30:07;19.10;57.80
58933;DHT22;44716;51.022;6.818;2024-01-15T11:32:34;19.10;58.20
58933;DHT22;44716;51.022;6.818;2024-01-15T11:35:01;19.10;58.40
58933;DHT22;44716;51.022;6.818;2024-01-15T11:37:28;19.10;58.30
58933;DHT22;44716;51.022;6.818;2024-01-15T11:39:54;19.20;58.00
58933;DHT22;44716;51.022;6.818;2024-01-15T11:42:21;19.10;58.00
58933;DHT22;44716;51.022;6.818;2024-01-15T11:44:49;19.10;58.00
58933;DHT22;44716;51.022;6.818;2024-01-15T11:47:15;19.10;57.90
58933;DHT22;44716;51.022;6.818;2024-01-15T11:49:59;19.10;57.90
58933;DHT22;44716;51.022;6.818;2024-01-15T11:52:34;19.20;57.90
58933;DHT22;44716;51.022;6.818;2024-01-15T12:00:10;19.10;57.90
58933;DHT22;44716;51.022;6.818;2024-01-15T12:02:38;19.10;57.80
58933;DHT22;44716;51.022;6.818;2024-01-15T12:05:03;19.10;57.80
58933;DHT22;44716;51.022;6.818;2024-01-15T12:07:29;19.10;57.80
58933;DHT22;44716;51.022;6.818;2024-01-15T12:09:55;19.10;57.80
58933;DHT22;44716;51.022;6.818;2024-01-15T12:14:59;19.10;57.80
58933;DHT22;44716;51.022;6.818;2024-01-15T12:17:24;19.10;57.80
58933;DHT22;44716;51.022;6.818;2024-01-15T12:19:51;19.00;58.00
58933;DHT22;44716;51.022;6.818;2024-01-15T12:22:22;19.00;57.90
58933;DHT22;44716;51.022;6.818;2024-01-15T12:24:47;19.00;58.10
58933;DHT22;44716;51.022;6.818;2024-01-15T12:27:13;19.00;58.00
58933;DHT22;44716;51.022;6.818;2024-01-15T12:29:39;19.00;58.10
58933;DHT22;44716;51.022;6.818;2024-01-15T12:32:05;19.00;58.00
58933;DHT22;44716;51.022;6.818;2024-01-15T12:34:30;19.00;58.10
58933;DHT22;44716;51.022;6.818;2024-01-15T12:36:57;18.90;58.10
58933;DHT22;44716;51.022;6.818;2024-01-15T12:39:22;19.00;58.30
58933;DHT22;44716;51.022;6.818;2024-01-15T12:41:49;19.00;58.10
58933;DHT22;44716;51.022;6.818;2024-01-15T12:44:15;18.90;58.00
58933;DHT22;44716;51.022;6.818;2024-01-15T12:46:40;18.90;58.00
58933;DHT22;44716;51.022;6.818;2024-01-15T12:49:07;18.90;58.00
58933;DHT22;44716;51.022;6.818;2024-01-15T12:51:34;18.90;58.10
58933;DHT22;44716;51.022;6.818;2024-01-15T12:53:59;18.90;58.00
58933;DHT22;44716;51.022;6.818;2024-01-15T12:56:25;18.90;58.10
58933;DHT22;44716;51.022;6.818;2024-01-15T12:58:50;18.90;58.10
58933;DHT22;44716;51.022;6.818;2024-01-15T13:01:16;18.90;58.10
58933;DHT22;44716;51.022;6.818;2024-01-15T13:03:41;18.90;58.00
58933;DHT22;44716;51.022;6.818;2024-01-15T13:06:07;18.90;58.00
58933;DHT22;44716;51.022;6.818;2024-01-15T13:08:32;18.90;58.00
58933;DHT22;44716;51.022;6.818;2024-01-15T13:10:58;18.80;57.90
58933;DHT22;44716;51.022;6.818;2024-01-15T13:13:24;18.80;57.90
58933;DHT22;44716;51.022;6.818;2024-01-15T13:15:49;18.80;57.90
58933;DHT22;44716;51.022;6.818;2024-01-15T13:18:15;18.80;57.90
58933;DHT22;44716;51.022;6.818;2024-01-15T13:20:41;18.80;57.90
58933;DHT22;44716;51.022;6.818;2024-01-15T13:23:06;18.80;57.80
58933;DHT22;44716;51.022;6.818;2024-01-15T13:25:35;18.80;57.90
58933;DHT22;44716;51.022;6.818;2024-01-15T13:28:04;18.80;57.80
58933;DHT22;44716;51.022;6.818;2024-01-15T13:30:33;18.70;57.90
58933;DHT22;44716;51.022;6.818;2024-01-15T13:33:00;18.80;57.90
58933;DHT22;44716;51.022;6.818;2024-01-15T13:35:29;18.70;57.80
58933;DHT22;44716;51.022;6.818;2024-01-15T13:37:58;18.80;57.80
58933;DHT22;44716;51.022;6.818;2024-01-15T13:40:23;18.80;57.70
58933;DHT22;44716;51.022;6.818;2024-01-15T13:42:50;18.80;57.70
58933;DHT22;44716;51.022;6.818;2024-01-15T13:45:17;18.70;57.70
58933;DHT22;44716;51.022;6.818;2024-01-15T13:47:43;18.70;57.70
58933;DHT22;44716;51.022;6.818;2024-01-15T13:50:09;18.70;57.70
58933;DHT22;44716;51.022;6.818;2024-01-15T13:52:34;18.70;57.70
58933;DHT22;44716;51.022;6.818;2024-01-15T13:55:00;18.70;57.70
58933;DHT22;44716;51.022;6.818;2024-01-15T13:57:27;18.70;57.80
58933;DHT22;44716;51.022;6.818;2024-01-15T13:59:55;18.60;57.70
58933;DHT22;44716;51.022;6.818;2024-01-15T14:02:20;18.60;57.70
58933;DHT22;44716;51.022;6.818;2024-01-15T14:04:46;18.60;57.80
58933;DHT22;44716;51.022;6.818;2024-01-15T14:07:16;18.60;57.80
58933;DHT22;44716;51.022;6.818;2024-01-15T14:09:44;18.60;57.70
58933;DHT22;44716;51.022;6.818;2024-01-15T14:12:09;18.60;57.60
58933;DHT22;44716;51.022;6.818;2024-01-15T14:14:37;18.60;57.60
58933;DHT22;44716;51.022;6.818;2024-01-15T14:17:02;18.60;57.70
58933;DHT22;44716;51.022;6.818;2024-01-15T14:19:29;18.60;58.30
58933;DHT22;44716;51.022;6.818;2024-01-15T14:21:54;18.60;57.70
58933;DHT22;44716;51.022;6.818;2024-01-15T14:24:23;18.60;57.70
58933;DHT22;44716;51.022;6.818;2024-01-15T14:26:48;18.60;57.70
58933;DHT22;44716;51.022;6.818;2024-01-15T14:29:14;18.60;57.60
58933;DHT22;44716;51.022;6.818;2024-01-15T14:31:39;18.60;57.60
58933;DHT22;44716;51.022;6.818;2024-01-15T14:34:05;18.60;57.60
58933;DHT22;44716;51.022;6.818;2024-01-15T14:36:32;18.60;57.50
58933;DHT22;44716;51.022;6.818;2024-01-15T14:38:58;18.60;57.50
58933;DHT22;44716;51.022;6.818;2024-01-15T14:41:24;18.60;57.50
58933;DHT22;44716;51.022;6.818;2024-01-15T14:43:52;18.60;57.50
58933;DHT22;44716;51.022;6.818;2024-01-15T14:46:19;18.60;57.50
58933;DHT22;44716;51.022;6.818;2024-01-15T14:48:46;18.60;57.60
58933;DHT22;44716;51.022;6.818;2024-01-15T14:51:11;18.50;57.60
58933;DHT22;44716;51.022;6.818;2024-01-15T14:53:37;18.50;57.50
58933;DHT22;44716;51.022;6.818;2024-01-15T14:56:03;18.50;57.60
58933;DHT22;44716;51.022;6.818;2024-01-15T14:58:31;18.50;57.60
58933;DHT22;44716;51.022;6.818;2024-01-15T15:00:57;18.50;57.70
58933;DHT22;44716;51.022;6.818;2024-01-15T15:03:22;18.50;57.60
58933;DHT22;44716;51.022;6.818;2024-01-15T15:05:48;18.50;57.70
58933;DHT22;44716;51.022;6.818;2024-01-15T15:08:14;18.50;57.60
58933;DHT22;44716;51.022;6.818;2024-01-15T15:10:39;18.50;57.70
58933;DHT22;44716;51.022;6.818;2024-01-15T15:13:06;18.50;57.60
58933;DHT22;44716;51.022;6.818;2024-01-15T15:15:31;18.50;57.70
58933;DHT22;44716;51.022;6.818;2024-01-15T15:17:57;18.50;57.60
58933;DHT22;44716;51.022;6.818;2024-01-15T15:20:23;18.50;58.10
58933;DHT22;44716;51.022;6.818;2024-01-15T15:22:49;18.50;57.60
58933;DHT22;44716;51.022;6.818;2024-01-15T15:25:14;18.50;57.60
58933;DHT22;44716;51.022;6.818;2024-01-15T15:27:40;18.50;57.60
58933;DHT22;44716;51.022;6.818;2024-01-15T15:30:08;18.40;57.60